createdAt,value
2023-11-10T00:04:23.450Z,1010.7
2023-11-10T00:09:50.881Z,1010.6
2023-11-10T00:15:06.154Z,1010.6
2023-11-10T00:21:04.365Z,1010.7
2023-11-10T00:26:32.761Z,1010.7
2023-11-10T00:32:10.605Z,1010.6
2023-11-10T00:37:34.912Z,1010.5
2023-11-10T00:42:58.207Z,1010.5
2023-11-10T00:48:44.284Z,1010.4
2023-11-10T00:54:06.076Z,1010.3
2023-11-10T00:59:34.565Z,1010.2
2023-11-10T01:04:57.820Z,1010.2
2023-11-10T01:10:38.833Z,1010
2023-11-10T01:16:17.418Z,1009.9
2023-11-10T01:21:44.546Z,1009.7
2023-11-10T01:27:14.053Z,1009.7
2023-11-10T01:32:45.016Z,1009.5
2023-11-10T01:38:15.298Z,1009.4
2023-11-10T01:43:58.006Z,1009.4
2023-11-10T01:49:34.747Z,1009.4
2023-11-10T01:55:07.832Z,1009.3
2023-11-10T02:00:36.253Z,1009.4
2023-11-10T02:06:12.000Z,1009.4
2023-11-10T02:11:26.447Z,1009.3
2023-11-10T02:17:13.302Z,1009.3
2023-11-10T02:22:39.996Z,1009.4
2023-11-10T02:28:27.062Z,1009.5
2023-11-10T02:33:51.049Z,1009.4
2023-11-10T02:39:26.129Z,1009.5
2023-11-10T02:45:03.468Z,1009.5
2023-11-10T02:50:32.528Z,1009.5
2023-11-10T02:55:54.813Z,1009.5
2023-11-10T03:01:31.345Z,1009.6
2023-11-10T03:07:14.012Z,1009.6
2023-11-10T03:12:35.408Z,1009.5
2023-11-10T03:18:14.071Z,1009.4
2023-11-10T03:23:44.693Z,1009.2
2023-11-10T03:29:02.548Z,1009.2
2023-11-10T03:34:54.528Z,1009.2
2023-11-10T03:40:24.308Z,1009.4
2023-11-10T03:45:52.341Z,1009.5
2023-11-10T03:51:12.557Z,1009.7
2023-11-10T03:56:57.140Z,1009.8
2023-11-10T04:02:18.596Z,1010
2023-11-10T04:07:59.271Z,1010.1
2023-11-10T04:13:19.294Z,1010.2
2023-11-10T04:24:47.187Z,1010.1
2023-11-10T04:29:59.583Z,1009.9
2023-11-10T04:35:55.294Z,1009.9
2023-11-10T04:41:06.663Z,1009.8
2023-11-10T04:46:59.061Z,1009.8
2023-11-10T04:52:27.058Z,1009.9
2023-11-10T04:57:45.870Z,1010.1
2023-11-10T05:03:09.066Z,1010.1
2023-11-10T05:14:20.910Z,1010.1
2023-11-10T05:20:09.830Z,1010.1
2023-11-10T05:25:42.082Z,1010.1
2023-11-10T05:30:59.484Z,1010.2
2023-11-10T05:36:39.918Z,1010.1
2023-11-10T05:42:12.520Z,1010.1
2023-11-10T05:47:47.020Z,1010.2
2023-11-10T05:58:37.003Z,1010.1
2023-11-10T06:09:40.603Z,1010.1
2023-11-10T06:15:11.412Z,1010.3
2023-11-10T06:20:57.427Z,1010.2
2023-11-10T06:26:28.437Z,1010.3
2023-11-10T06:31:52.504Z,1010.4
2023-11-10T06:37:37.501Z,1010.4
2023-11-10T06:42:54.765Z,1010.5
2023-11-10T06:48:25.155Z,1010.5
2023-11-10T06:59:42.222Z,1010.5
2023-11-10T07:05:01.636Z,1010.7
2023-11-10T07:10:45.454Z,1010.6
2023-11-10T07:16:01.451Z,1010.6
2023-11-10T07:21:45.951Z,1010.6
2023-11-10T07:27:15.609Z,1010.5
2023-11-10T07:32:44.462Z,1010.6
2023-11-10T07:38:10.570Z,1010.6
2023-11-10T07:43:38.292Z,1010.5
2023-11-10T07:49:28.773Z,1010.4
2023-11-10T07:55:05.230Z,1010.3
2023-11-10T08:00:33.010Z,1010.4
2023-11-10T08:05:56.035Z,1010.3
2023-11-10T08:11:42.117Z,1010.3
2023-11-10T08:22:39.373Z,1010.3
2023-11-10T08:28:23.273Z,1010.3
2023-11-10T08:33:33.499Z,1010.3
2023-11-10T08:39:18.707Z,1010.3
2023-11-10T08:44:55.257Z,1010.2
2023-11-10T08:50:22.126Z,1010.3
2023-11-10T08:55:39.321Z,1010.1
2023-11-10T09:01:31.491Z,1010
2023-11-10T09:12:18.905Z,1010.2
2023-11-10T09:18:00.056Z,1010.2
2023-11-10T09:23:40.040Z,1010.1
2023-11-10T09:29:18.459Z,1010.1
2023-11-10T09:34:25.928Z,1010.2
2023-11-10T09:39:58.677Z,1010.2
2023-11-10T09:45:53.421Z,1010.1
2023-11-10T09:51:15.915Z,1009.9
2023-11-10T09:56:47.382Z,1009.6
2023-11-10T10:02:18.136Z,1009
2023-11-10T10:08:05.136Z,1008.8
2023-11-10T10:13:39.343Z,1008.8
2023-11-10T10:19:02.905Z,1008.6
2023-11-10T10:24:31.915Z,1008.6
2023-11-10T10:29:58.216Z,1008.5
2023-11-10T10:35:39.254Z,1008.6
2023-11-10T10:40:59.541Z,1008.6
2023-11-10T10:46:42.588Z,1008.6
2023-11-10T10:52:02.551Z,1008.7
2023-11-10T10:57:47.487Z,1008.6
2023-11-10T11:03:25.728Z,1008.7
2023-11-10T11:08:46.465Z,1008.6
2023-11-10T11:14:41.647Z,1008.7
2023-11-10T11:19:48.841Z,1008.5
2023-11-10T11:25:44.284Z,1008.6
2023-11-10T11:30:56.469Z,1008.6
2023-11-10T11:36:34.814Z,1008.5
2023-11-10T11:42:17.144Z,1008.5
2023-11-10T11:47:31.184Z,1008.4
2023-11-10T11:53:30.966Z,1008.3
2023-11-10T11:58:57.032Z,1008.4
2023-11-10T12:04:25.560Z,1008.4
2023-11-10T12:10:01.832Z,1008.3
2023-11-10T12:15:32.025Z,1008.2
2023-11-10T12:20:51.596Z,1008.1
2023-11-10T12:26:21.815Z,1007.9
2023-11-10T12:37:42.046Z,1007.7
2023-11-10T12:43:04.198Z,1007.8
2023-11-10T12:48:57.546Z,1007.7
2023-11-10T12:54:04.884Z,1008
2023-11-10T12:59:46.448Z,1008
2023-11-10T13:05:25.117Z,1007.9
2023-11-10T13:10:42.538Z,1007.6
2023-11-10T13:16:20.537Z,1007.7
2023-11-10T13:27:29.497Z,1008
2023-11-10T13:33:07.547Z,1008.2
2023-11-10T13:38:42.758Z,1008.1
2023-11-10T13:44:07.913Z,1008.2
2023-11-10T13:49:35.646Z,1008.1
2023-11-10T13:55:28.221Z,1008
2023-11-10T14:00:55.636Z,1008.1
2023-11-10T14:06:15.831Z,1008.1
2023-11-10T14:11:53.382Z,1007.9
2023-11-10T14:17:35.042Z,1008
2023-11-10T14:23:11.709Z,1008.1
2023-11-10T14:28:50.594Z,1008.2
2023-11-10T14:33:59.332Z,1008.2
2023-11-10T14:56:29.327Z,1008.3
